sensor_id;sensor_type;location;lat;lon;timestamp;P1;durP1;ratioP1;P2;durP2;ratioP2
78840;SDS011;68379;47.190;27.558;2024-01-07T00:00:20;37.20;;;16.80;;
78840;SDS011;68379;47.190;27.558;2024-01-07T00:03:11;36.00;;;16.70;;
78840;SDS011;68379;47.190;27.558;2024-01-07T00:05:44;41.30;;;17.90;;
78840;SDS011;68379;47.190;27.558;2024-01-07T00:08:17;35.60;;;17.30;;
78840;SDS011;68379;47.190;27.558;2024-01-07T00:10:49;39.80;;;17.20;;
78840;SDS011;68379;47.190;27.558;2024-01-07T00:13:21;36.20;;;17.50;;
78840;SDS011;68379;47.190;27.558;2024-01-07T00:15:53;33.80;;;16.00;;
78840;SDS011;68379;47.190;27.558;2024-01-07T00:18:24;33.90;;;16.50;;
78840;SDS011;68379;47.190;27.558;2024-01-07T00:20:56;35.60;;;16.20;;
78840;SDS011;68379;47.190;27.558;2024-01-07T00:23:27;36.90;;;17.30;;
78840;SDS011;68379;47.190;27.558;2024-01-07T00:25:59;32.50;;;16.00;;
78840;SDS011;68379;47.190;27.558;2024-01-07T00:28:31;35.20;;;16.50;;
78840;SDS011;68379;47.190;27.558;2024-01-07T00:31:03;37.50;;;16.60;;
78840;SDS011;68379;47.190;27.558;2024-01-07T00:33:39;30.30;;;15.20;;
78840;SDS011;68379;47.190;27.558;2024-01-07T00:36:11;35.20;;;16.50;;
78840;SDS011;68379;47.190;27.558;2024-01-07T00:38:42;37.70;;;17.10;;
78840;SDS011;68379;47.190;27.558;2024-01-07T00:41:14;36.70;;;17.00;;
78840;SDS011;68379;47.190;27.558;2024-01-07T00:43:46;38.30;;;16.80;;
78840;SDS011;68379;47.190;27.558;2024-01-07T00:46:17;38.20;;;16.20;;
78840;SDS011;68379;47.190;27.558;2024-01-07T00:48:49;35.70;;;17.20;;
78840;SDS011;68379;47.190;27.558;2024-01-07T00:51:20;37.20;;;16.90;;
78840;SDS011;68379;47.190;27.558;2024-01-07T00:53:52;41.60;;;17.40;;
78840;SDS011;68379;47.190;27.558;2024-01-07T00:56:26;36.10;;;17.00;;
78840;SDS011;68379;47.190;27.558;2024-01-07T00:58:58;39.00;;;16.10;;
78840;SDS011;68379;47.190;27.558;2024-01-07T01:01:30;36.30;;;15.90;;
78840;SDS011;68379;47.190;27.558;2024-01-07T01:04:02;37.30;;;16.90;;
78840;SDS011;68379;47.190;27.558;2024-01-07T01:06:34;37.90;;;16.60;;
78840;SDS011;68379;47.190;27.558;2024-01-07T01:09:05;37.90;;;16.40;;
78840;SDS011;68379;47.190;27.558;2024-01-07T01:11:37;38.60;;;15.80;;
78840;SDS011;68379;47.190;27.558;2024-01-07T01:14:08;40.80;;;17.60;;
78840;SDS011;68379;47.190;27.558;2024-01-07T01:16:40;43.30;;;18.20;;
78840;SDS011;68379;47.190;27.558;2024-01-07T01:19:12;37.30;;;17.60;;
78840;SDS011;68379;47.190;27.558;2024-01-07T01:21:43;39.80;;;17.30;;
78840;SDS011;68379;47.190;27.558;2024-01-07T01:24:15;37.10;;;16.30;;
78840;SDS011;68379;47.190;27.558;2024-01-07T01:26:47;38.00;;;16.50;;
78840;SDS011;68379;47.190;27.558;2024-01-07T01:29:19;37.50;;;17.70;;
78840;SDS011;68379;47.190;27.558;2024-01-07T01:31:50;40.30;;;17.70;;
78840;SDS011;68379;47.190;27.558;2024-01-07T01:34:22;44.40;;;16.70;;
78840;SDS011;68379;47.190;27.558;2024-01-07T01:36:53;35.90;;;16.20;;
78840;SDS011;68379;47.190;27.558;2024-01-07T01:39:25;45.30;;;17.50;;
78840;SDS011;68379;47.190;27.558;2024-01-07T01:41:57;35.50;;;15.90;;
78840;SDS011;68379;47.190;27.558;2024-01-07T01:44:29;35.90;;;16.10;;
78840;SDS011;68379;47.190;27.558;2024-01-07T01:47:00;39.00;;;16.60;;
78840;SDS011;68379;47.190;27.558;2024-01-07T01:49:34;39.00;;;16.10;;
78840;SDS011;68379;47.190;27.558;2024-01-07T01:52:06;42.60;;;16.90;;
78840;SDS011;68379;47.190;27.558;2024-01-07T01:54:38;37.30;;;17.30;;
78840;SDS011;68379;47.190;27.558;2024-01-07T01:57:09;39.20;;;17.00;;
78840;SDS011;68379;47.190;27.558;2024-01-07T01:59:46;41.90;;;18.40;;
78840;SDS011;68379;47.190;27.558;2024-01-07T02:02:21;37.40;;;16.00;;
78840;SDS011;68379;47.190;27.558;2024-01-07T02:04:53;31.50;;;15.20;;
78840;SDS011;68379;47.190;27.558;2024-01-07T02:07:25;38.70;;;17.30;;
78840;SDS011;68379;47.190;27.558;2024-01-07T02:09:59;38.30;;;15.30;;
78840;SDS011;68379;47.190;27.558;2024-01-07T02:12:31;36.60;;;15.00;;
78840;SDS011;68379;47.190;27.558;2024-01-07T02:15:02;37.30;;;17.80;;
78840;SDS011;68379;47.190;27.558;2024-01-07T02:17:35;43.40;;;17.00;;
78840;SDS011;68379;47.190;27.558;2024-01-07T02:20:08;40.60;;;15.70;;
78840;SDS011;68379;47.190;27.558;2024-01-07T02:22:40;40.90;;;17.00;;
78840;SDS011;68379;47.190;27.558;2024-01-07T02:25:11;38.50;;;17.30;;
78840;SDS011;68379;47.190;27.558;2024-01-07T02:27:43;38.30;;;16.30;;
78840;SDS011;68379;47.190;27.558;2024-01-07T02:30:14;41.60;;;17.40;;
78840;SDS011;68379;47.190;27.558;2024-01-07T02:32:46;35.50;;;15.80;;
78840;SDS011;68379;47.190;27.558;2024-01-07T02:35:17;40.30;;;16.80;;
78840;SDS011;68379;47.190;27.558;2024-01-07T02:37:49;35.20;;;16.10;;
78840;SDS011;68379;47.190;27.558;2024-01-07T02:40:20;40.40;;;16.30;;
78840;SDS011;68379;47.190;27.558;2024-01-07T02:42:52;36.40;;;16.10;;
78840;SDS011;68379;47.190;27.558;2024-01-07T02:45:24;43.50;;;16.70;;
78840;SDS011;68379;47.190;27.558;2024-01-07T02:47:56;40.50;;;18.00;;
78840;SDS011;68379;47.190;27.558;2024-01-07T02:50:28;48.70;;;19.60;;
78840;SDS011;68379;47.190;27.558;2024-01-07T02:53:00;42.30;;;18.20;;
78840;SDS011;68379;47.190;27.558;2024-01-07T02:55:31;43.30;;;18.60;;
78840;SDS011;68379;47.190;27.558;2024-01-07T02:58:03;47.60;;;19.10;;
78840;SDS011;68379;47.190;27.558;2024-01-07T03:00:35;45.80;;;19.30;;
78840;SDS011;68379;47.190;27.558;2024-01-07T03:03:07;43.70;;;17.60;;
78840;SDS011;68379;47.190;27.558;2024-01-07T03:05:39;43.50;;;19.00;;
78840;SDS011;68379;47.190;27.558;2024-01-07T03:08:10;44.20;;;19.10;;
78840;SDS011;68379;47.190;27.558;2024-01-07T03:10:43;51.00;;;18.80;;
78840;SDS011;68379;47.190;27.558;2024-01-07T03:13:15;44.20;;;19.00;;
78840;SDS011;68379;47.190;27.558;2024-01-07T03:15:46;47.20;;;19.40;;
78840;SDS011;68379;47.190;27.558;2024-01-07T03:18:18;42.50;;;18.40;;
78840;SDS011;68379;47.190;27.558;2024-01-07T03:20:49;43.50;;;18.80;;
78840;SDS011;68379;47.190;27.558;2024-01-07T03:23:20;44.30;;;18.20;;
78840;SDS011;68379;47.190;27.558;2024-01-07T03:25:52;44.60;;;19.60;;
78840;SDS011;68379;47.190;27.558;2024-01-07T03:28:23;39.90;;;18.80;;
78840;SDS011;68379;47.190;27.558;2024-01-07T03:30:54;43.20;;;19.30;;
78840;SDS011;68379;47.190;27.558;2024-01-07T03:33:26;41.50;;;17.80;;
78840;SDS011;68379;47.190;27.558;2024-01-07T03:35:57;43.20;;;19.10;;
78840;SDS011;68379;47.190;27.558;2024-01-07T03:38:28;38.60;;;18.00;;
78840;SDS011;68379;47.190;27.558;2024-01-07T03:41:00;41.60;;;19.60;;
78840;SDS011;68379;47.190;27.558;2024-01-07T03:43:31;44.00;;;18.70;;
78840;SDS011;68379;47.190;27.558;2024-01-07T03:46:03;43.00;;;19.50;;
78840;SDS011;68379;47.190;27.558;2024-01-07T03:48:35;46.10;;;18.60;;
78840;SDS011;68379;47.190;27.558;2024-01-07T03:51:06;44.80;;;18.60;;
78840;SDS011;68379;47.190;27.558;2024-01-07T03:53:38;44.60;;;19.10;;
78840;SDS011;68379;47.190;27.558;2024-01-07T03:56:10;42.90;;;19.40;;
78840;SDS011;68379;47.190;27.558;2024-01-07T03:58:41;43.30;;;17.90;;
78840;SDS011;68379;47.190;27.558;2024-01-07T04:01:17;47.20;;;19.40;;
78840;SDS011;68379;47.190;27.558;2024-01-07T04:03:51;44.40;;;19.60;;
78840;SDS011;68379;47.190;27.558;2024-01-07T04:06:22;44.90;;;19.80;;
78840;SDS011;68379;47.190;27.558;2024-01-07T04:08:53;44.40;;;18.50;;
78840;SDS011;68379;47.190;27.558;2024-01-07T04:11:25;42.50;;;18.90;;
78840;SDS011;68379;47.190;27.558;2024-01-07T04:13:56;43.80;;;18.30;;
78840;SDS011;68379;47.190;27.558;2024-01-07T04:16:27;50.10;;;20.80;;
78840;SDS011;68379;47.190;27.558;2024-01-07T04:18:59;42.20;;;19.10;;
78840;SDS011;68379;47.190;27.558;2024-01-07T04:21:31;51.90;;;22.10;;
78840;SDS011;68379;47.190;27.558;2024-01-07T04:24:04;45.10;;;19.30;;
78840;SDS011;68379;47.190;27.558;2024-01-07T04:26:36;43.50;;;18.90;;
78840;SDS011;68379;47.190;27.558;2024-01-07T04:29:07;44.60;;;19.20;;
78840;SDS011;68379;47.190;27.558;2024-01-07T04:31:39;46.40;;;19.90;;
78840;SDS011;68379;47.190;27.558;2024-01-07T04:34:11;49.80;;;20.80;;
78840;SDS011;68379;47.190;27.558;2024-01-07T04:36:42;44.70;;;19.50;;
78840;SDS011;68379;47.190;27.558;2024-01-07T04:39:14;41.50;;;18.00;;
78840;SDS011;68379;47.190;27.558;2024-01-07T04:41:45;45.60;;;19.30;;
78840;SDS011;68379;47.190;27.558;2024-01-07T04:44:16;45.40;;;21.10;;
78840;SDS011;68379;47.190;27.558;2024-01-07T04:46:48;46.10;;;19.00;;
78840;SDS011;68379;47.190;27.558;2024-01-07T04:49:19;52.00;;;19.80;;
78840;SDS011;68379;47.190;27.558;2024-01-07T04:51:51;45.50;;;18.30;;
78840;SDS011;68379;47.190;27.558;2024-01-07T04:54:22;37.80;;;16.60;;
78840;SDS011;68379;47.190;27.558;2024-01-07T04:56:54;44.50;;;18.80;;
78840;SDS011;68379;47.190;27.558;2024-01-07T04:59:26;46.10;;;17.20;;
78840;SDS011;68379;47.190;27.558;2024-01-07T05:01:57;43.10;;;18.20;;
78840;SDS011;68379;47.190;27.558;2024-01-07T05:04:29;54.30;;;19.40;;
78840;SDS011;68379;47.190;27.558;2024-01-07T05:07:01;55.00;;;22.20;;
78840;SDS011;68379;47.190;27.558;2024-01-07T05:09:33;55.70;;;22.00;;
78840;SDS011;68379;47.190;27.558;2024-01-07T05:12:05;50.70;;;20.00;;
78840;SDS011;68379;47.190;27.558;2024-01-07T05:14:37;56.10;;;22.20;;
78840;SDS011;68379;47.190;27.558;2024-01-07T05:17:11;53.70;;;22.30;;
78840;SDS011;68379;47.190;27.558;2024-01-07T05:19:42;46.90;;;19.70;;
78840;SDS011;68379;47.190;27.558;2024-01-07T05:22:14;43.70;;;18.80;;
78840;SDS011;68379;47.190;27.558;2024-01-07T05:24:45;43.80;;;19.20;;
78840;SDS011;68379;47.190;27.558;2024-01-07T05:27:17;43.80;;;17.50;;
78840;SDS011;68379;47.190;27.558;2024-01-07T05:29:48;42.30;;;18.60;;
78840;SDS011;68379;47.190;27.558;2024-01-07T05:32:22;46.40;;;19.50;;
78840;SDS011;68379;47.190;27.558;2024-01-07T05:34:54;43.30;;;18.30;;
78840;SDS011;68379;47.190;27.558;2024-01-07T05:37:25;55.40;;;20.70;;
78840;SDS011;68379;47.190;27.558;2024-01-07T05:39:57;52.60;;;20.80;;
78840;SDS011;68379;47.190;27.558;2024-01-07T05:42:28;55.50;;;22.10;;
78840;SDS011;68379;47.190;27.558;2024-01-07T05:45:00;53.90;;;20.20;;
78840;SDS011;68379;47.190;27.558;2024-01-07T05:47:32;51.40;;;18.50;;
78840;SDS011;68379;47.190;27.558;2024-01-07T05:50:03;50.50;;;18.40;;
78840;SDS011;68379;47.190;27.558;2024-01-07T05:52:36;46.70;;;18.90;;
78840;SDS011;68379;47.190;27.558;2024-01-07T05:55:09;48.40;;;17.80;;
78840;SDS011;68379;47.190;27.558;2024-01-07T05:57:40;49.40;;;19.30;;
78840;SDS011;68379;47.190;27.558;2024-01-07T06:00:13;47.20;;;18.40;;
78840;SDS011;68379;47.190;27.558;2024-01-07T06:02:45;43.50;;;17.40;;
78840;SDS011;68379;47.190;27.558;2024-01-07T06:05:17;51.30;;;20.50;;
78840;SDS011;68379;47.190;27.558;2024-01-07T06:07:49;47.60;;;18.00;;
78840;SDS011;68379;47.190;27.558;2024-01-07T06:10:21;52.60;;;20.70;;
78840;SDS011;68379;47.190;27.558;2024-01-07T06:12:52;50.40;;;20.50;;
78840;SDS011;68379;47.190;27.558;2024-01-07T06:15:24;50.20;;;20.10;;
78840;SDS011;68379;47.190;27.558;2024-01-07T06:17:55;36.80;;;14.70;;
78840;SDS011;68379;47.190;27.558;2024-01-07T06:20:27;36.30;;;14.80;;
78840;SDS011;68379;47.190;27.558;2024-01-07T06:22:58;32.70;;;13.70;;
78840;SDS011;68379;47.190;27.558;2024-01-07T06:25:30;33.40;;;13.30;;
78840;SDS011;68379;47.190;27.558;2024-01-07T06:28:02;36.40;;;15.30;;
78840;SDS011;68379;47.190;27.558;2024-01-07T06:30:33;38.90;;;13.70;;
78840;SDS011;68379;47.190;27.558;2024-01-07T06:33:05;36.10;;;13.00;;
78840;SDS011;68379;47.190;27.558;2024-01-07T06:35:37;34.80;;;14.50;;
78840;SDS011;68379;47.190;27.558;2024-01-07T06:38:09;39.80;;;15.70;;
78840;SDS011;68379;47.190;27.558;2024-01-07T06:40:40;34.20;;;14.80;;
78840;SDS011;68379;47.190;27.558;2024-01-07T06:43:12;37.00;;;14.40;;
78840;SDS011;68379;47.190;27.558;2024-01-07T06:45:46;30.50;;;13.40;;
78840;SDS011;68379;47.190;27.558;2024-01-07T06:48:18;36.40;;;14.00;;
78840;SDS011;68379;47.190;27.558;2024-01-07T06:50:49;30.70;;;12.90;;
78840;SDS011;68379;47.190;27.558;2024-01-07T06:53:22;38.70;;;14.20;;
78840;SDS011;68379;47.190;27.558;2024-01-07T06:55:54;28.40;;;11.30;;
78840;SDS011;68379;47.190;27.558;2024-01-07T06:58:26;26.80;;;10.70;;
78840;SDS011;68379;47.190;27.558;2024-01-07T07:00:57;27.50;;;12.00;;
78840;SDS011;68379;47.190;27.558;2024-01-07T07:03:28;25.10;;;11.50;;
78840;SDS011;68379;47.190;27.558;2024-01-07T07:06:00;26.90;;;10.90;;
78840;SDS011;68379;47.190;27.558;2024-01-07T07:08:31;25.00;;;11.10;;
78840;SDS011;68379;47.190;27.558;2024-01-07T07:11:03;23.40;;;10.70;;
78840;SDS011;68379;47.190;27.558;2024-01-07T07:13:35;24.90;;;10.50;;
78840;SDS011;68379;47.190;27.558;2024-01-07T07:16:08;26.00;;;10.80;;
78840;SDS011;68379;47.190;27.558;2024-01-07T07:18:40;27.30;;;10.60;;
78840;SDS011;68379;47.190;27.558;2024-01-07T07:21:11;27.60;;;9.50;;
78840;SDS011;68379;47.190;27.558;2024-01-07T07:23:42;24.50;;;9.90;;
78840;SDS011;68379;47.190;27.558;2024-01-07T07:26:14;22.80;;;9.60;;
78840;SDS011;68379;47.190;27.558;2024-01-07T07:28:46;17.70;;;8.30;;
78840;SDS011;68379;47.190;27.558;2024-01-07T07:31:18;18.90;;;8.20;;
78840;SDS011;68379;47.190;27.558;2024-01-07T07:33:49;18.00;;;7.40;;
78840;SDS011;68379;47.190;27.558;2024-01-07T07:36:21;19.10;;;7.80;;
78840;SDS011;68379;47.190;27.558;2024-01-07T07:41:24;16.10;;;6.80;;
78840;SDS011;68379;47.190;27.558;2024-01-07T07:43:56;11.70;;;5.40;;
78840;SDS011;68379;47.190;27.558;2024-01-07T07:46:28;13.20;;;6.50;;
78840;SDS011;68379;47.190;27.558;2024-01-07T07:49:00;13.60;;;5.90;;
78840;SDS011;68379;47.190;27.558;2024-01-07T07:51:36;9.50;;;5.00;;
78840;SDS011;68379;47.190;27.558;2024-01-07T07:54:08;12.10;;;5.70;;
78840;SDS011;68379;47.190;27.558;2024-01-07T07:56:39;13.50;;;5.20;;
78840;SDS011;68379;47.190;27.558;2024-01-07T07:59:11;13.50;;;5.30;;
78840;SDS011;68379;47.190;27.558;2024-01-07T08:01:43;10.00;;;5.20;;
78840;SDS011;68379;47.190;27.558;2024-01-07T08:04:14;13.60;;;5.50;;
78840;SDS011;68379;47.190;27.558;2024-01-07T08:06:46;11.50;;;5.50;;
78840;SDS011;68379;47.190;27.558;2024-01-07T08:09:18;11.10;;;5.60;;
78840;SDS011;68379;47.190;27.558;2024-01-07T08:11:49;13.60;;;5.80;;
78840;SDS011;68379;47.190;27.558;2024-01-07T08:14:20;12.30;;;5.60;;
78840;SDS011;68379;47.190;27.558;2024-01-07T08:16:52;13.90;;;5.60;;
78840;SDS011;68379;47.190;27.558;2024-01-07T08:19:24;12.50;;;6.10;;
78840;SDS011;68379;47.190;27.558;2024-01-07T08:21:55;10.90;;;5.20;;
78840;SDS011;68379;47.190;27.558;2024-01-07T08:24:27;12.30;;;5.60;;
78840;SDS011;68379;47.190;27.558;2024-01-07T08:26:58;11.40;;;6.10;;
78840;SDS011;68379;47.190;27.558;2024-01-07T08:29:33;11.30;;;5.10;;
78840;SDS011;68379;47.190;27.558;2024-01-07T08:32:05;13.80;;;6.10;;
78840;SDS011;68379;47.190;27.558;2024-01-07T08:34:37;14.70;;;6.30;;
78840;SDS011;68379;47.190;27.558;2024-01-07T08:37:09;14.70;;;5.90;;
78840;SDS011;68379;47.190;27.558;2024-01-07T08:39:40;12.30;;;6.10;;
78840;SDS011;68379;47.190;27.558;2024-01-07T08:42:12;12.30;;;6.00;;
78840;SDS011;68379;47.190;27.558;2024-01-07T08:44:43;11.90;;;5.90;;
78840;SDS011;68379;47.190;27.558;2024-01-07T08:47:15;13.50;;;6.40;;
78840;SDS011;68379;47.190;27.558;2024-01-07T08:49:47;14.40;;;6.00;;
78840;SDS011;68379;47.190;27.558;2024-01-07T08:52:21;12.50;;;5.80;;
78840;SDS011;68379;47.190;27.558;2024-01-07T08:54:53;15.80;;;6.50;;
78840;SDS011;68379;47.190;27.558;2024-01-07T08:57:24;15.40;;;7.80;;
78840;SDS011;68379;47.190;27.558;2024-01-07T09:02:28;15.10;;;6.20;;
78840;SDS011;68379;47.190;27.558;2024-01-07T09:05:03;15.90;;;6.90;;
78840;SDS011;68379;47.190;27.558;2024-01-07T09:07:35;14.50;;;6.20;;
78840;SDS011;68379;47.190;27.558;2024-01-07T09:10:11;14.00;;;6.10;;
78840;SDS011;68379;47.190;27.558;2024-01-07T09:12:43;13.20;;;6.80;;
78840;SDS011;68379;47.190;27.558;2024-01-07T09:15:14;16.10;;;6.70;;
78840;SDS011;68379;47.190;27.558;2024-01-07T09:17:51;15.40;;;7.50;;
78840;SDS011;68379;47.190;27.558;2024-01-07T09:20:23;15.70;;;7.00;;
78840;SDS011;68379;47.190;27.558;2024-01-07T09:22:55;13.90;;;6.80;;
78840;SDS011;68379;47.190;27.558;2024-01-07T09:25:27;15.80;;;6.90;;
78840;SDS011;68379;47.190;27.558;2024-01-07T09:27:59;13.30;;;6.50;;
78840;SDS011;68379;47.190;27.558;2024-01-07T09:30:31;16.70;;;6.30;;
78840;SDS011;68379;47.190;27.558;2024-01-07T09:33:02;16.40;;;7.10;;
78840;SDS011;68379;47.190;27.558;2024-01-07T09:35:35;15.40;;;8.00;;
78840;SDS011;68379;47.190;27.558;2024-01-07T09:38:07;16.10;;;7.40;;
78840;SDS011;68379;47.190;27.558;2024-01-07T09:40:39;15.40;;;6.80;;
78840;SDS011;68379;47.190;27.558;2024-01-07T09:43:11;15.60;;;6.90;;
78840;SDS011;68379;47.190;27.558;2024-01-07T09:45:44;20.00;;;7.40;;
78840;SDS011;68379;47.190;27.558;2024-01-07T09:48:18;13.60;;;7.40;;
78840;SDS011;68379;47.190;27.558;2024-01-07T09:50:50;19.30;;;8.40;;
78840;SDS011;68379;47.190;27.558;2024-01-07T09:53:24;15.50;;;6.20;;
78840;SDS011;68379;47.190;27.558;2024-01-07T09:56:04;20.20;;;8.90;;
78840;SDS011;68379;47.190;27.558;2024-01-07T09:58:43;19.40;;;8.20;;
78840;SDS011;68379;47.190;27.558;2024-01-07T10:01:18;15.30;;;7.30;;
78840;SDS011;68379;47.190;27.558;2024-01-07T10:03:50;18.80;;;7.70;;
78840;SDS011;68379;47.190;27.558;2024-01-07T10:06:21;18.40;;;8.60;;
78840;SDS011;68379;47.190;27.558;2024-01-07T10:08:53;18.40;;;7.70;;
78840;SDS011;68379;47.190;27.558;2024-01-07T10:11:24;19.30;;;8.40;;
78840;SDS011;68379;47.190;27.558;2024-01-07T10:13:56;20.60;;;9.10;;
78840;SDS011;68379;47.190;27.558;2024-01-07T10:16:28;18.30;;;8.80;;
78840;SDS011;68379;47.190;27.558;2024-01-07T10:19:02;17.70;;;8.80;;
78840;SDS011;68379;47.190;27.558;2024-01-07T10:21:35;21.60;;;9.40;;
78840;SDS011;68379;47.190;27.558;2024-01-07T10:24:10;23.40;;;9.70;;
78840;SDS011;68379;47.190;27.558;2024-01-07T10:26:43;16.00;;;6.90;;
78840;SDS011;68379;47.190;27.558;2024-01-07T10:29:14;17.60;;;6.90;;
78840;SDS011;68379;47.190;27.558;2024-01-07T10:31:48;20.30;;;8.30;;
78840;SDS011;68379;47.190;27.558;2024-01-07T10:34:20;17.70;;;7.80;;
78840;SDS011;68379;47.190;27.558;2024-01-07T10:36:54;19.40;;;8.30;;
78840;SDS011;68379;47.190;27.558;2024-01-07T10:39:28;20.10;;;7.80;;
78840;SDS011;68379;47.190;27.558;2024-01-07T10:41:59;19.90;;;7.50;;
78840;SDS011;68379;47.190;27.558;2024-01-07T10:44:31;17.90;;;8.20;;
78840;SDS011;68379;47.190;27.558;2024-01-07T10:47:04;20.90;;;8.20;;
78840;SDS011;68379;47.190;27.558;2024-01-07T10:49:40;19.60;;;8.10;;
78840;SDS011;68379;47.190;27.558;2024-01-07T10:52:19;15.70;;;7.10;;
78840;SDS011;68379;47.190;27.558;2024-01-07T10:54:51;17.50;;;7.00;;
78840;SDS011;68379;47.190;27.558;2024-01-07T10:57:27;17.40;;;7.10;;
78840;SDS011;68379;47.190;27.558;2024-01-07T11:00:06;15.20;;;8.10;;
78840;SDS011;68379;47.190;27.558;2024-01-07T11:02:53;16.10;;;6.80;;
78840;SDS011;68379;47.190;27.558;2024-01-07T11:05:34;14.60;;;7.00;;
78840;SDS011;68379;47.190;27.558;2024-01-07T11:08:13;14.50;;;6.90;;
78840;SDS011;68379;47.190;27.558;2024-01-07T11:10:50;16.20;;;7.00;;
78840;SDS011;68379;47.190;27.558;2024-01-07T11:13:34;16.90;;;6.90;;
78840;SDS011;68379;47.190;27.558;2024-01-07T11:16:07;11.60;;;6.00;;
78840;SDS011;68379;47.190;27.558;2024-01-07T11:18:39;12.80;;;5.80;;
78840;SDS011;68379;47.190;27.558;2024-01-07T11:21:21;13.70;;;6.60;;
78840;SDS011;68379;47.190;27.558;2024-01-07T11:23:54;11.90;;;5.50;;
78840;SDS011;68379;47.190;27.558;2024-01-07T11:26:25;12.10;;;6.10;;
78840;SDS011;68379;47.190;27.558;2024-01-07T11:29:00;11.90;;;6.30;;
78840;SDS011;68379;47.190;27.558;2024-01-07T11:31:46;11.30;;;5.20;;
78840;SDS011;68379;47.190;27.558;2024-01-07T11:37:12;11.30;;;5.10;;
78840;SDS011;68379;47.190;27.558;2024-01-07T11:39:43;11.10;;;5.70;;
78840;SDS011;68379;47.190;27.558;2024-01-07T11:42:16;10.30;;;5.10;;
78840;SDS011;68379;47.190;27.558;2024-01-07T11:44:48;12.00;;;5.30;;
78840;SDS011;68379;47.190;27.558;2024-01-07T11:47:22;9.80;;;4.50;;
78840;SDS011;68379;47.190;27.558;2024-01-07T11:49:55;10.40;;;4.20;;
78840;SDS011;68379;47.190;27.558;2024-01-07T11:52:28;9.30;;;4.80;;
78840;SDS011;68379;47.190;27.558;2024-01-07T11:55:05;11.00;;;5.70;;
78840;SDS011;68379;47.190;27.558;2024-01-07T11:57:37;9.80;;;4.80;;
78840;SDS011;68379;47.190;27.558;2024-01-07T12:00:13;11.30;;;5.10;;
78840;SDS011;68379;47.190;27.558;2024-01-07T12:02:47;10.10;;;4.80;;
78840;SDS011;68379;47.190;27.558;2024-01-07T12:05:18;10.90;;;4.70;;
78840;SDS011;68379;47.190;27.558;2024-01-07T12:07:50;10.60;;;4.40;;
78840;SDS011;68379;47.190;27.558;2024-01-07T12:10:22;8.60;;;4.60;;
78840;SDS011;68379;47.190;27.558;2024-01-07T12:12:53;8.30;;;4.60;;
78840;SDS011;68379;47.190;27.558;2024-01-07T12:15:25;8.60;;;4.70;;
78840;SDS011;68379;47.190;27.558;2024-01-07T12:17:57;8.40;;;4.00;;
78840;SDS011;68379;47.190;27.558;2024-01-07T12:20:29;9.70;;;4.80;;
78840;SDS011;68379;47.190;27.558;2024-01-07T12:23:06;9.20;;;4.40;;
78840;SDS011;68379;47.190;27.558;2024-01-07T12:25:38;8.80;;;5.00;;
78840;SDS011;68379;47.190;27.558;2024-01-07T12:28:09;7.40;;;3.30;;
78840;SDS011;68379;47.190;27.558;2024-01-07T12:30:41;6.40;;;3.60;;
78840;SDS011;68379;47.190;27.558;2024-01-07T12:33:15;6.80;;;3.40;;
78840;SDS011;68379;47.190;27.558;2024-01-07T12:35:48;7.80;;;4.10;;
78840;SDS011;68379;47.190;27.558;2024-01-07T12:38:24;5.80;;;3.30;;
78840;SDS011;68379;47.190;27.558;2024-01-07T12:40:55;6.50;;;3.30;;
78840;SDS011;68379;47.190;27.558;2024-01-07T12:43:27;7.70;;;4.20;;
78840;SDS011;68379;47.190;27.558;2024-01-07T12:45:58;6.90;;;3.20;;
78840;SDS011;68379;47.190;27.558;2024-01-07T12:48:32;7.80;;;3.10;;
78840;SDS011;68379;47.190;27.558;2024-01-07T12:51:04;7.40;;;4.20;;
78840;SDS011;68379;47.190;27.558;2024-01-07T12:53:36;6.40;;;3.10;;
78840;SDS011;68379;47.190;27.558;2024-01-07T12:56:07;6.40;;;3.30;;
78840;SDS011;68379;47.190;27.558;2024-01-07T12:58:39;7.30;;;3.40;;
78840;SDS011;68379;47.190;27.558;2024-01-07T13:01:10;7.40;;;2.80;;
78840;SDS011;68379;47.190;27.558;2024-01-07T13:03:42;6.80;;;3.30;;
78840;SDS011;68379;47.190;27.558;2024-01-07T13:06:13;7.90;;;3.90;;
78840;SDS011;68379;47.190;27.558;2024-01-07T13:08:45;6.70;;;3.30;;
78840;SDS011;68379;47.190;27.558;2024-01-07T13:11:16;8.30;;;3.80;;
78840;SDS011;68379;47.190;27.558;2024-01-07T13:13:47;6.90;;;3.60;;
78840;SDS011;68379;47.190;27.558;2024-01-07T13:16:19;7.60;;;3.30;;
78840;SDS011;68379;47.190;27.558;2024-01-07T13:18:51;6.50;;;3.70;;
78840;SDS011;68379;47.190;27.558;2024-01-07T13:21:22;7.00;;;3.50;;
78840;SDS011;68379;47.190;27.558;2024-01-07T13:23:53;8.90;;;3.50;;
78840;SDS011;68379;47.190;27.558;2024-01-07T13:26:27;8.20;;;3.50;;
78840;SDS011;68379;47.190;27.558;2024-01-07T13:28:59;8.60;;;3.80;;
78840;SDS011;68379;47.190;27.558;2024-01-07T13:31:31;7.60;;;3.50;;
78840;SDS011;68379;47.190;27.558;2024-01-07T13:34:03;6.20;;;2.50;;
78840;SDS011;68379;47.190;27.558;2024-01-07T13:36:34;7.90;;;3.70;;
78840;SDS011;68379;47.190;27.558;2024-01-07T13:39:06;8.30;;;3.60;;
78840;SDS011;68379;47.190;27.558;2024-01-07T13:41:37;6.40;;;2.50;;
78840;SDS011;68379;47.190;27.558;2024-01-07T13:44:08;6.30;;;2.60;;
78840;SDS011;68379;47.190;27.558;2024-01-07T13:46:46;5.40;;;2.30;;
78840;SDS011;68379;47.190;27.558;2024-01-07T13:49:20;6.40;;;2.70;;
78840;SDS011;68379;47.190;27.558;2024-01-07T13:51:51;3.30;;;1.50;;
78840;SDS011;68379;47.190;27.558;2024-01-07T13:54:23;4.30;;;2.10;;
78840;SDS011;68379;47.190;27.558;2024-01-07T13:56:54;7.40;;;3.00;;
78840;SDS011;68379;47.190;27.558;2024-01-07T13:59:27;5.80;;;2.50;;
78840;SDS011;68379;47.190;27.558;2024-01-07T14:01:59;4.80;;;2.40;;
78840;SDS011;68379;47.190;27.558;2024-01-07T14:04:30;5.20;;;2.30;;
78840;SDS011;68379;47.190;27.558;2024-01-07T14:07:02;5.40;;;2.50;;
78840;SDS011;68379;47.190;27.558;2024-01-07T14:09:33;3.70;;;2.30;;
78840;SDS011;68379;47.190;27.558;2024-01-07T14:12:05;4.50;;;2.20;;
78840;SDS011;68379;47.190;27.558;2024-01-07T14:14:37;3.70;;;2.40;;
78840;SDS011;68379;47.190;27.558;2024-01-07T14:17:08;4.30;;;2.10;;
78840;SDS011;68379;47.190;27.558;2024-01-07T14:19:40;6.40;;;2.50;;
78840;SDS011;68379;47.190;27.558;2024-01-07T14:22:14;5.60;;;2.60;;
78840;SDS011;68379;47.190;27.558;2024-01-07T14:24:46;5.80;;;2.60;;
78840;SDS011;68379;47.190;27.558;2024-01-07T14:27:17;6.60;;;3.30;;
78840;SDS011;68379;47.190;27.558;2024-01-07T14:29:49;6.80;;;2.80;;
78840;SDS011;68379;47.190;27.558;2024-01-07T14:32:20;6.70;;;3.10;;
78840;SDS011;68379;47.190;27.558;2024-01-07T14:34:52;9.10;;;3.00;;
78840;SDS011;68379;47.190;27.558;2024-01-07T14:37:23;7.00;;;3.50;;
78840;SDS011;68379;47.190;27.558;2024-01-07T14:39:56;8.80;;;3.60;;
78840;SDS011;68379;47.190;27.558;2024-01-07T14:42:27;7.00;;;2.90;;
78840;SDS011;68379;47.190;27.558;2024-01-07T14:44:58;5.30;;;2.30;;
78840;SDS011;68379;47.190;27.558;2024-01-07T14:47:32;8.10;;;2.50;;
78840;SDS011;68379;47.190;27.558;2024-01-07T14:50:04;6.30;;;2.90;;
78840;SDS011;68379;47.190;27.558;2024-01-07T14:52:36;5.70;;;2.80;;
78840;SDS011;68379;47.190;27.558;2024-01-07T14:55:09;6.50;;;3.00;;